createdAt,value
2017-01-02T00:00:55.047Z,0
2017-01-02T00:01:54.894Z,0
2017-01-02T00:02:54.630Z,0
2017-01-02T00:03:54.638Z,0
2017-01-02T00:04:53.803Z,0
2017-01-02T00:05:54.626Z,0
2017-01-02T00:06:54.622Z,0
2017-01-02T00:07:54.199Z,0
2017-01-02T00:08:55.015Z,0
2017-01-02T00:09:54.599Z,0
2017-01-02T00:10:54.191Z,0
2017-01-02T00:11:55.027Z,0
2017-01-02T00:12:54.591Z,0
2017-01-02T00:13:54.998Z,0
2017-01-02T00:14:54.994Z,0
2017-01-02T00:15:55.018Z,0
2017-01-02T00:16:54.983Z,0
2017-01-02T00:17:54.974Z,0
2017-01-02T00:18:54.967Z,0
2017-01-02T00:19:54.146Z,0
2017-01-02T00:20:54.554Z,0
2017-01-02T00:21:54.555Z,0
2017-01-02T00:22:54.950Z,0
2017-01-02T00:23:54.955Z,0
2017-01-02T00:24:54.935Z,0
2017-01-02T00:26:01.206Z,0
2017-01-02T00:26:54.523Z,0
2017-01-02T00:27:54.935Z,0
2017-01-02T00:28:54.515Z,0
2017-01-02T00:29:54.923Z,0
2017-01-02T00:30:54.919Z,0
2017-01-02T00:31:54.505Z,0
2017-01-02T00:32:54.499Z,0
2017-01-02T00:33:54.910Z,0
2017-01-02T00:34:54.899Z,0
2017-01-02T00:35:54.067Z,0
2017-01-02T00:36:54.483Z,0
2017-01-02T00:37:54.471Z,0
2017-01-02T00:38:54.467Z,0
2017-01-02T00:39:54.467Z,0
2017-01-02T00:40:54.463Z,0
2017-01-02T00:41:54.863Z,0
2017-01-02T00:42:54.458Z,0
2017-01-02T00:43:54.446Z,0
2017-01-02T00:44:54.856Z,0
2017-01-02T00:45:54.847Z,0
2017-01-02T00:46:54.839Z,0
2017-01-02T00:47:54.019Z,0
2017-01-02T00:48:54.422Z,0
2017-01-02T00:49:54.831Z,0
2017-01-02T00:50:54.419Z,0
2017-01-02T00:51:54.407Z,0
2017-01-02T00:52:54.823Z,0
2017-01-02T00:53:53.999Z,0
2017-01-02T00:54:54.399Z,0
2017-01-02T00:55:54.419Z,0
2017-01-02T00:56:53.559Z,0
2017-01-02T00:57:54.791Z,0
2017-01-02T00:58:54.379Z,0
2017-01-02T00:59:54.375Z,0
2017-01-02T01:00:54.799Z,0
2017-01-02T01:01:53.951Z,0
2017-01-02T01:02:54.359Z,0
2017-01-02T01:03:54.767Z,0
2017-01-02T01:04:53.939Z,0
2017-01-02T01:05:54.342Z,0
2017-01-02T01:06:54.363Z,0
2017-01-02T01:07:54.328Z,0
2017-01-02T01:08:54.331Z,0
2017-01-02T01:09:54.327Z,0
2017-01-02T01:10:54.323Z,0
2017-01-02T01:11:54.727Z,0
2017-01-02T01:12:54.731Z,0
2017-01-02T01:13:54.323Z,0
2017-01-02T01:14:54.303Z,0
2017-01-02T01:15:53.883Z,0
2017-01-02T01:16:54.307Z,0
2017-01-02T01:17:54.696Z,0
2017-01-02T01:18:53.874Z,0
2017-01-02T01:19:54.687Z,0
2017-01-02T01:20:54.283Z,0
2017-01-02T01:21:54.467Z,0
2017-01-02T01:22:54.683Z,0
2017-01-02T01:23:54.263Z,0
2017-01-02T01:24:53.843Z,0
2017-01-02T01:25:54.255Z,0
2017-01-02T01:26:54.663Z,0
2017-01-02T01:27:53.835Z,0
2017-01-02T01:28:54.239Z,0
2017-01-02T01:29:54.227Z,0
2017-01-02T01:30:54.219Z,0
2017-01-02T01:31:54.635Z,0
2017-01-02T01:32:54.227Z,0
2017-01-02T01:33:54.216Z,0
2017-01-02T01:34:54.623Z,0
2017-01-02T01:35:54.211Z,0
2017-01-02T01:36:54.611Z,0
2017-01-02T01:37:54.188Z,0
2017-01-02T01:38:53.787Z,0
2017-01-02T01:39:53.771Z,0
2017-01-02T01:40:54.179Z,0
2017-01-02T01:41:54.180Z,0
2017-01-02T01:42:54.179Z,0
2017-01-02T01:43:53.764Z,0
2017-01-02T01:44:54.163Z,0
2017-01-02T01:45:54.575Z,0
2017-01-02T01:46:53.739Z,0
2017-01-02T01:47:53.732Z,0
2017-01-02T01:48:54.559Z,0
2017-01-02T01:49:53.744Z,0
2017-01-02T01:50:54.143Z,0
2017-01-02T01:51:54.132Z,0
2017-01-02T01:52:53.716Z,0
2017-01-02T01:53:54.128Z,0
2017-01-02T01:54:53.708Z,0
2017-01-02T01:55:54.528Z,0
2017-01-02T01:56:54.120Z,0
2017-01-02T01:57:54.520Z,0
2017-01-02T01:58:54.516Z,0
2017-01-02T01:59:54.501Z,0
2017-01-02T02:00:53.680Z,0
2017-01-02T02:01:54.496Z,0
2017-01-02T02:02:54.084Z,0
2017-01-02T02:03:54.084Z,0
2017-01-02T02:04:53.664Z,0
2017-01-02T02:05:54.068Z,0
2017-01-02T02:06:53.652Z,0
2017-01-02T02:07:54.057Z,0
2017-01-02T02:08:53.637Z,0
2017-01-02T02:09:54.053Z,0
2017-01-02T02:10:54.453Z,0
2017-01-02T02:11:53.633Z,0
2017-01-02T02:12:53.617Z,0
2017-01-02T02:13:54.445Z,0
2017-01-02T02:14:54.025Z,0
2017-01-02T02:15:54.017Z,0
2017-01-02T02:16:54.681Z,0
2017-01-02T02:17:53.601Z,0
2017-01-02T02:18:54.446Z,0
2017-01-02T02:19:53.997Z,0
2017-01-02T02:20:54.409Z,0
2017-01-02T02:21:54.001Z,0
2017-01-02T02:22:53.998Z,0
2017-01-02T02:23:53.989Z,0
2017-01-02T02:24:54.389Z,0
2017-01-02T02:25:53.153Z,0
2017-01-02T02:26:54.382Z,0
2017-01-02T02:27:54.372Z,0
2017-01-02T02:28:53.969Z,0
2017-01-02T02:29:53.557Z,0
2017-01-02T02:30:53.534Z,0
2017-01-02T02:31:54.358Z,0
2017-01-02T02:32:54.366Z,0
2017-01-02T02:33:53.522Z,0
2017-01-02T02:34:53.934Z,0
2017-01-02T02:35:54.342Z,0
2017-01-02T02:36:53.930Z,0
2017-01-02T02:37:53.934Z,0
2017-01-02T02:38:53.506Z,0
2017-01-02T02:39:53.910Z,0
2017-01-02T02:40:54.318Z,0
2017-01-02T02:41:54.326Z,0
2017-01-02T02:42:53.902Z,0
2017-01-02T02:43:53.891Z,0
2017-01-02T02:44:53.890Z,0
2017-01-02T02:45:53.894Z,0
2017-01-02T02:46:54.298Z,0
2017-01-02T02:47:53.474Z,0
2017-01-02T02:48:54.286Z,0
2017-01-02T02:49:53.867Z,0
2017-01-02T02:50:54.275Z,0
2017-01-02T02:51:53.866Z,0
2017-01-02T02:52:53.850Z,0
2017-01-02T02:53:53.435Z,0
2017-01-02T02:54:53.431Z,0
2017-01-02T02:55:53.843Z,0
2017-01-02T02:56:54.244Z,0
2017-01-02T02:57:53.835Z,0
2017-01-02T02:58:53.823Z,0
2017-01-02T02:59:53.815Z,0
2017-01-02T03:00:53.858Z,0
2017-01-02T03:01:54.227Z,0
2017-01-02T03:02:53.407Z,0
2017-01-02T03:03:53.807Z,0
2017-01-02T03:04:53.795Z,0
2017-01-02T03:05:54.207Z,0
2017-01-02T03:06:53.784Z,0
2017-01-02T03:07:54.191Z,0
2017-01-02T03:08:53.780Z,0
2017-01-02T03:09:53.779Z,0
2017-01-02T03:10:54.188Z,0
2017-01-02T03:11:54.172Z,0
2017-01-02T03:12:53.756Z,0
2017-01-02T03:13:53.768Z,0
2017-01-02T03:14:53.340Z,0
2017-01-02T03:15:53.755Z,0
2017-01-02T03:16:53.328Z,0
2017-01-02T03:17:53.324Z,0
2017-01-02T03:18:53.732Z,0
2017-01-02T03:19:53.316Z,0
2017-01-02T03:20:53.316Z,0
2017-01-02T03:21:53.720Z,0
2017-01-02T03:22:53.716Z,0
2017-01-02T03:23:53.708Z,0
2017-01-02T03:24:53.728Z,0
2017-01-02T03:25:54.104Z,0
2017-01-02T03:26:53.292Z,0
2017-01-02T03:27:53.692Z,0
2017-01-02T03:28:53.672Z,0
2017-01-02T03:29:54.092Z,0
2017-01-02T03:30:54.092Z,0
2017-01-02T03:31:53.288Z,0
2017-01-02T03:32:53.672Z,0
2017-01-02T03:33:53.244Z,0
2017-01-02T03:34:54.068Z,0
2017-01-02T03:35:54.068Z,0
2017-01-02T03:36:54.045Z,0
2017-01-02T03:37:54.053Z,0
2017-01-02T03:38:53.228Z,0
2017-01-02T03:39:53.645Z,0
2017-01-02T03:40:53.221Z,0
2017-01-02T03:41:53.625Z,0
2017-01-02T03:42:53.617Z,0
2017-01-02T03:43:53.621Z,0
2017-01-02T03:44:53.189Z,0
2017-01-02T03:45:53.616Z,0
2017-01-02T03:46:53.605Z,0
2017-01-02T03:47:53.193Z,0
2017-01-02T03:48:54.009Z,0
2017-01-02T03:49:53.173Z,0
2017-01-02T03:50:53.592Z,0
2017-01-02T03:51:53.173Z,0
2017-01-02T03:52:53.981Z,0
2017-01-02T03:53:53.565Z,0
2017-01-02T03:54:53.572Z,0
2017-01-02T03:55:53.565Z,0
2017-01-02T03:56:53.553Z,0
2017-01-02T03:57:53.552Z,0
2017-01-02T03:58:53.549Z,0
2017-01-02T03:59:53.947Z,0
2017-01-02T04:00:53.133Z,0
2017-01-02T04:01:53.529Z,0
2017-01-02T04:02:53.533Z,0
2017-01-02T04:03:53.525Z,0
2017-01-02T04:04:53.521Z,0
2017-01-02T04:05:53.925Z,0
2017-01-02T04:06:53.912Z,0
2017-01-02T04:07:53.920Z,0
2017-01-02T04:08:53.085Z,0
2017-01-02T04:09:53.493Z,0
2017-01-02T04:10:53.073Z,0
2017-01-02T04:11:53.901Z,0
2017-01-02T04:12:53.065Z,0
2017-01-02T04:13:53.501Z,0
2017-01-02T04:14:53.873Z,0
2017-01-02T04:15:53.057Z,0
2017-01-02T04:16:53.049Z,0
2017-01-02T04:17:53.045Z,0
2017-01-02T04:18:53.449Z,0
2017-01-02T04:19:53.453Z,0
2017-01-02T04:20:53.449Z,0
2017-01-02T04:21:53.845Z,0
2017-01-02T04:22:53.029Z,0
2017-01-02T04:23:53.017Z,0
2017-01-02T04:24:53.857Z,0
2017-01-02T04:25:53.009Z,0
2017-01-02T04:26:53.418Z,0
2017-01-02T04:27:53.421Z,0
2017-01-02T04:28:52.997Z,0
2017-01-02T04:29:53.409Z,0
2017-01-02T04:30:53.805Z,0
2017-01-02T04:31:53.393Z,0
2017-01-02T04:32:53.825Z,0
2017-01-02T04:33:53.381Z,0
2017-01-02T04:34:52.957Z,0
2017-01-02T04:35:53.377Z,0
2017-01-02T04:36:53.369Z,0
2017-01-02T04:37:53.357Z,0
2017-01-02T04:38:53.797Z,0
2017-01-02T04:39:53.761Z,0
2017-01-02T04:40:52.941Z,0
2017-01-02T04:41:53.345Z,0
2017-01-02T04:42:53.337Z,0
2017-01-02T04:43:53.744Z,0
2017-01-02T04:44:53.737Z,0
2017-01-02T04:45:53.765Z,0
2017-01-02T04:46:53.317Z,0
2017-01-02T04:47:53.309Z,0
2017-01-02T04:48:53.724Z,0
2017-01-02T04:49:52.893Z,0
2017-01-02T04:50:53.305Z,0
2017-01-02T04:51:52.469Z,0
2017-01-02T04:52:53.289Z,0
2017-01-02T04:53:52.873Z,0
2017-01-02T04:54:53.285Z,0
2017-01-02T04:55:53.689Z,0
2017-01-02T04:56:53.697Z,0
2017-01-02T04:57:53.261Z,0
2017-01-02T04:58:53.283Z,0
2017-01-02T04:59:53.260Z,0
2017-01-02T05:00:52.845Z,0
2017-01-02T05:01:53.244Z,0
2017-01-02T05:02:52.838Z,0
2017-01-02T05:03:53.240Z,0
2017-01-02T05:04:53.249Z,0
2017-01-02T05:05:52.820Z,0
2017-01-02T05:06:53.224Z,0
2017-01-02T05:07:53.233Z,0
2017-01-02T05:08:53.629Z,0
2017-01-02T05:09:53.624Z,0
2017-01-02T05:10:52.804Z,0
2017-01-02T05:11:53.621Z,0
2017-01-02T05:12:53.613Z,0
2017-01-02T05:13:52.788Z,0
2017-01-02T05:14:53.185Z,0
2017-01-02T05:15:53.592Z,0
2017-01-02T05:16:53.173Z,0
2017-01-02T05:17:53.184Z,0
2017-01-02T05:18:53.169Z,0
2017-01-02T05:19:52.749Z,0
2017-01-02T05:20:53.569Z,0
2017-01-02T05:21:53.592Z,0
2017-01-02T05:22:53.153Z,0
2017-01-02T05:23:53.549Z,0
2017-01-02T05:24:53.141Z,0
2017-01-02T05:25:53.549Z,0
2017-01-02T05:26:53.137Z,0
2017-01-02T05:27:53.125Z,0
2017-01-02T05:28:52.297Z,0
2017-01-02T05:29:53.533Z,0
2017-01-02T05:30:53.149Z,0
2017-01-02T05:31:53.109Z,0
2017-01-02T05:32:52.693Z,0
2017-01-02T05:33:53.097Z,0
2017-01-02T05:34:53.105Z,0
2017-01-02T05:35:53.085Z,0
2017-01-02T05:36:53.085Z,0
2017-01-02T05:37:53.485Z,0
2017-01-02T05:38:53.077Z,0
2017-01-02T05:39:52.653Z,0
2017-01-02T05:40:52.654Z,0
2017-01-02T05:41:52.649Z,0
2017-01-02T05:42:53.469Z,0
2017-01-02T05:43:52.630Z,0
2017-01-02T05:44:53.054Z,0
2017-01-02T05:45:52.638Z,0
2017-01-02T05:46:53.446Z,0
2017-01-02T05:47:53.029Z,0
2017-01-02T05:48:53.033Z,0
2017-01-02T05:49:53.026Z,0
2017-01-02T05:50:53.030Z,0
2017-01-02T05:51:53.418Z,0
2017-01-02T05:52:52.602Z,0
2017-01-02T05:53:53.001Z,0
2017-01-02T05:54:52.582Z,0
2017-01-02T05:55:52.586Z,0
2017-01-02T05:56:52.990Z,0
2017-01-02T05:57:52.986Z,0
2017-01-02T05:58:52.982Z,0
2017-01-02T05:59:53.394Z,0
2017-01-02T06:00:52.974Z,0
2017-01-02T06:01:52.562Z,0
2017-01-02T06:02:52.961Z,0
2017-01-02T06:03:52.546Z,0
2017-01-02T06:04:52.538Z,0
2017-01-02T06:05:52.938Z,0
2017-01-02T06:06:52.538Z,0
2017-01-02T06:07:52.934Z,0
2017-01-02T06:08:53.346Z,0
2017-01-02T06:09:52.926Z,0
2017-01-02T06:10:53.338Z,0
2017-01-02T06:11:52.918Z,0
2017-01-02T06:12:52.918Z,0
2017-01-02T06:13:52.920Z,0
2017-01-02T06:14:52.898Z,0
2017-01-02T06:15:52.906Z,0
2017-01-02T06:16:52.894Z,0
2017-01-02T06:17:52.890Z,0
2017-01-02T06:18:52.890Z,0
2017-01-02T06:19:52.886Z,0
2017-01-02T06:20:52.470Z,0
2017-01-02T06:21:52.886Z,0
2017-01-02T06:22:52.467Z,0
2017-01-02T06:23:52.862Z,0
2017-01-02T06:24:52.858Z,0
2017-01-02T06:25:53.263Z,0
2017-01-02T06:26:52.846Z,0
2017-01-02T06:27:52.842Z,0
2017-01-02T06:28:53.254Z,0
2017-01-02T06:29:52.422Z,0
2017-01-02T06:30:52.838Z,0
2017-01-02T06:31:52.831Z,0
2017-01-02T06:32:52.822Z,0
2017-01-02T06:33:52.819Z,0
2017-01-02T06:34:52.811Z,0
2017-01-02T06:35:52.399Z,0
2017-01-02T06:36:52.399Z,0
2017-01-02T06:37:53.207Z,0
2017-01-02T06:38:52.791Z,0
2017-01-02T06:39:52.787Z,0
2017-01-02T06:40:53.190Z,0
2017-01-02T06:41:52.778Z,0
2017-01-02T06:42:52.771Z,0
2017-01-02T06:43:52.767Z,0
2017-01-02T06:44:52.363Z,0
2017-01-02T06:45:53.172Z,4
2017-01-02T06:46:53.167Z,4
2017-01-02T06:47:52.763Z,0
2017-01-02T06:48:52.743Z,4
2017-01-02T06:49:52.739Z,4
2017-01-02T06:50:52.739Z,4
2017-01-02T06:51:52.727Z,4
2017-01-02T06:52:52.727Z,4
2017-01-02T06:53:52.719Z,4
2017-01-02T06:54:52.723Z,8
2017-01-02T06:55:53.152Z,12
2017-01-02T06:56:53.119Z,12
2017-01-02T06:57:53.116Z,12
2017-01-02T06:58:52.699Z,16
2017-01-02T06:59:52.692Z,16
2017-01-02T07:00:53.132Z,16
2017-01-02T07:01:52.694Z,20
2017-01-02T07:02:52.680Z,36
2017-01-02T07:03:52.267Z,44
2017-01-02T07:04:52.260Z,32
2017-01-02T07:05:52.656Z,36
2017-01-02T07:06:52.276Z,36
2017-01-02T07:07:52.681Z,40
2017-01-02T07:08:53.056Z,44
2017-01-02T07:09:52.652Z,44
2017-01-02T07:10:52.228Z,44
2017-01-02T07:11:52.640Z,48
2017-01-02T07:12:53.048Z,56
2017-01-02T07:13:52.628Z,60
2017-01-02T07:14:52.632Z,60
2017-01-02T07:15:52.628Z,68
2017-01-02T07:16:51.793Z,72
2017-01-02T07:17:52.609Z,72
2017-01-02T07:18:52.608Z,80
2017-01-02T07:19:53.016Z,84
2017-01-02T07:20:53.005Z,88
2017-01-02T07:21:52.593Z,96
2017-01-02T07:22:52.625Z,112
2017-01-02T07:23:51.761Z,120
2017-01-02T07:24:52.580Z,120
2017-01-02T07:25:52.573Z,120
2017-01-02T07:26:52.569Z,136
2017-01-02T07:27:52.569Z,140
2017-01-02T07:28:52.965Z,132
2017-01-02T07:29:52.561Z,140
2017-01-02T07:30:52.146Z,148
2017-01-02T07:31:52.961Z,148
2017-01-02T07:32:52.129Z,164
2017-01-02T07:33:52.537Z,156
2017-01-02T07:34:52.125Z,164
2017-01-02T07:35:52.521Z,176
2017-01-02T07:36:52.949Z,176
2017-01-02T07:37:52.518Z,180
2017-01-02T07:38:52.922Z,192
2017-01-02T07:39:52.506Z,192
2017-01-02T07:40:52.501Z,188
2017-01-02T07:41:52.506Z,188
2017-01-02T07:42:52.902Z,196
2017-01-02T07:43:52.290Z,204
2017-01-02T07:44:52.490Z,200
2017-01-02T07:45:52.893Z,200
2017-01-02T07:46:52.066Z,192
2017-01-02T07:47:52.478Z,196
2017-01-02T07:48:52.062Z,216
2017-01-02T07:49:52.470Z,208
2017-01-02T07:50:52.466Z,208
2017-01-02T07:51:52.054Z,220
2017-01-02T07:52:52.046Z,228
2017-01-02T07:53:52.854Z,236
2017-01-02T07:54:52.863Z,248
2017-01-02T07:55:52.031Z,260
2017-01-02T07:56:52.834Z,272
2017-01-02T07:57:52.422Z,296
2017-01-02T07:58:52.436Z,308
2017-01-02T07:59:52.415Z,304
2017-01-02T08:00:52.411Z,292
2017-01-02T08:01:52.415Z,304
2017-01-02T08:02:52.431Z,276
2017-01-02T08:03:52.395Z,284
2017-01-02T08:04:51.983Z,308
2017-01-02T08:05:52.383Z,348
2017-01-02T08:06:52.387Z,344
2017-01-02T08:07:51.971Z,376
2017-01-02T08:08:51.963Z,420
2017-01-02T08:09:52.376Z,440
2017-01-02T08:10:52.371Z,464
2017-01-02T08:11:52.775Z,480
2017-01-02T08:12:52.360Z,520
2017-01-02T08:13:52.363Z,492
2017-01-02T08:14:52.755Z,468
2017-01-02T08:15:52.748Z,488
2017-01-02T08:16:52.753Z,528
2017-01-02T08:17:52.771Z,520
2017-01-02T08:18:51.924Z,528
2017-01-02T08:19:52.332Z,524
2017-01-02T08:20:51.912Z,544
2017-01-02T08:21:52.312Z,564
2017-01-02T08:22:52.728Z,560
2017-01-02T08:23:52.316Z,584
2017-01-02T08:24:51.896Z,580
2017-01-02T08:25:51.884Z,584
2017-01-02T08:26:52.300Z,604
2017-01-02T08:27:51.876Z,612
2017-01-02T08:28:52.280Z,616
2017-01-02T08:29:52.692Z,604
2017-01-02T08:30:51.865Z,644
2017-01-02T08:31:52.268Z,644
2017-01-02T08:32:52.272Z,648
2017-01-02T08:33:52.672Z,716
2017-01-02T08:34:51.849Z,760
2017-01-02T08:35:52.665Z,780
2017-01-02T08:36:52.249Z,744
2017-01-02T08:37:52.652Z,724
2017-01-02T08:38:51.826Z,744
2017-01-02T08:39:52.233Z,696
2017-01-02T08:40:52.233Z,736
2017-01-02T08:41:52.641Z,708
2017-01-02T08:42:51.817Z,764
2017-01-02T08:43:52.629Z,744
2017-01-02T08:44:52.217Z,716
2017-01-02T08:45:51.797Z,772
2017-01-02T08:46:52.197Z,780
2017-01-02T08:47:52.609Z,796
2017-01-02T08:48:52.205Z,816
2017-01-02T08:49:52.194Z,836
2017-01-02T08:50:52.177Z,872
2017-01-02T08:51:52.177Z,872
2017-01-02T08:52:52.177Z,924
2017-01-02T08:53:52.174Z,904
2017-01-02T08:54:52.577Z,904
2017-01-02T08:55:52.574Z,912
2017-01-02T08:56:51.753Z,916
2017-01-02T08:57:52.157Z,916
2017-01-02T08:58:52.566Z,920
2017-01-02T08:59:52.149Z,972
2017-01-02T09:00:52.558Z,988
2017-01-02T09:01:52.134Z,1040
2017-01-02T09:02:51.717Z,1100
2017-01-02T09:03:51.966Z,1092
2017-01-02T09:04:52.130Z,1076
2017-01-02T09:05:52.122Z,1060
2017-01-02T09:06:52.114Z,1056
2017-01-02T09:07:52.526Z,1016
2017-01-02T09:08:52.114Z,1068
2017-01-02T09:09:51.699Z,1076
2017-01-02T09:10:51.690Z,1084
2017-01-02T09:11:52.103Z,1112
2017-01-02T09:12:52.086Z,1120
2017-01-02T09:13:52.087Z,1172
2017-01-02T09:14:52.083Z,1216
2017-01-02T09:15:52.078Z,1116
2017-01-02T09:16:51.662Z,1156
2017-01-02T09:17:52.071Z,1284
2017-01-02T09:18:52.095Z,1220
2017-01-02T09:19:52.471Z,1252
2017-01-02T09:20:52.467Z,1228
2017-01-02T09:21:52.471Z,1216
2017-01-02T09:22:52.047Z,1188
2017-01-02T09:23:52.039Z,1200
2017-01-02T09:24:51.219Z,1188
2017-01-02T09:25:52.443Z,1188
2017-01-02T09:26:52.439Z,1160
2017-01-02T09:27:52.439Z,1276
2017-01-02T09:28:52.435Z,1324
2017-01-02T09:29:52.444Z,1348
2017-01-02T09:30:52.428Z,1248
2017-01-02T09:31:52.008Z,1200
2017-01-02T09:32:52.419Z,1104
2017-01-02T09:33:52.016Z,960
2017-01-02T09:34:51.997Z,800
2017-01-02T09:35:52.408Z,772
2017-01-02T09:36:51.572Z,776
2017-01-02T09:37:52.420Z,796
2017-01-02T09:38:51.988Z,860
2017-01-02T09:39:51.976Z,852
2017-01-02T09:40:51.976Z,920
2017-01-02T09:41:51.972Z,1024
2017-01-02T09:42:51.968Z,1124
2017-01-02T09:43:51.548Z,1200
2017-01-02T09:44:52.365Z,1220
2017-01-02T09:45:51.540Z,1204
2017-01-02T09:46:51.536Z,1228
2017-01-02T09:47:51.946Z,1244
2017-01-02T09:48:52.140Z,1244
2017-01-02T09:49:52.337Z,1392
2017-01-02T09:50:51.525Z,1512
2017-01-02T09:51:52.349Z,1636
2017-01-02T09:52:52.329Z,1464
2017-01-02T09:53:51.916Z,1456
2017-01-02T09:54:51.921Z,1392
2017-01-02T09:55:52.325Z,1512
2017-01-02T09:56:52.321Z,1512
2017-01-02T09:57:51.907Z,1420
2017-01-02T09:58:51.893Z,1284
2017-01-02T09:59:51.901Z,1176
2017-01-02T10:00:51.893Z,1140
2017-01-02T10:01:51.913Z,1268
2017-01-02T10:02:52.297Z,1616
2017-01-02T10:03:51.473Z,1660
2017-01-02T10:04:52.285Z,1632
2017-01-02T10:05:52.283Z,1592
2017-01-02T10:06:51.902Z,1588
2017-01-02T10:07:51.460Z,1568
2017-01-02T10:08:52.269Z,1540
2017-01-02T10:09:52.266Z,1568
2017-01-02T10:10:51.443Z,1592
2017-01-02T10:11:52.266Z,1464
2017-01-02T10:12:51.837Z,1272
2017-01-02T10:13:51.842Z,1192
2017-01-02T10:14:52.242Z,1232
2017-01-02T10:15:52.235Z,1376
2017-01-02T10:16:51.826Z,1432
2017-01-02T10:17:51.814Z,1592
2017-01-02T10:18:51.814Z,1700
2017-01-02T10:19:51.807Z,1776
2017-01-02T10:20:52.218Z,1864
2017-01-02T10:21:51.398Z,1868
2017-01-02T10:22:51.798Z,1864
2017-01-02T10:23:51.387Z,1812
2017-01-02T10:24:52.202Z,1888
2017-01-02T10:25:51.786Z,1960
2017-01-02T10:26:52.196Z,2068
2017-01-02T10:27:52.187Z,1968
2017-01-02T10:28:52.190Z,1940
2017-01-02T10:29:52.187Z,1920
2017-01-02T10:30:51.355Z,1960
2017-01-02T10:31:51.766Z,1916
2017-01-02T10:32:51.767Z,2072
2017-01-02T10:33:51.759Z,2112
2017-01-02T10:34:51.755Z,2060
2017-01-02T10:35:51.755Z,2028
2017-01-02T10:36:52.163Z,2004
2017-01-02T10:37:52.159Z,1900
2017-01-02T10:38:51.743Z,1760
2017-01-02T10:39:51.731Z,1784
2017-01-02T10:40:52.143Z,1688
2017-01-02T10:41:51.724Z,1724
2017-01-02T10:42:51.312Z,1816
2017-01-02T10:43:51.723Z,1760
2017-01-02T10:44:52.128Z,1660
2017-01-02T10:45:51.300Z,1516
2017-01-02T10:46:51.708Z,1396
2017-01-02T10:47:51.699Z,1364
2017-01-02T10:48:51.700Z,1500
2017-01-02T10:49:51.692Z,1612
2017-01-02T10:50:51.696Z,1792
2017-01-02T10:51:51.272Z,1740
2017-01-02T10:52:51.688Z,1696
2017-01-02T10:53:51.684Z,1668
2017-01-02T10:54:52.097Z,1620
2017-01-02T10:55:51.668Z,1520
2017-01-02T10:56:51.256Z,1732
2017-01-02T10:57:51.668Z,1556
2017-01-02T10:58:51.248Z,1548
2017-01-02T10:59:52.076Z,1568
2017-01-02T11:00:51.653Z,1536
2017-01-02T11:01:52.068Z,1512
2017-01-02T11:02:51.236Z,1388
2017-01-02T11:03:52.064Z,1400
2017-01-02T11:04:51.637Z,1372
2017-01-02T11:05:51.636Z,1532
2017-01-02T11:06:52.045Z,1724
2017-01-02T11:07:51.632Z,1692
2017-01-02T11:08:51.217Z,1808
2017-01-02T11:09:51.621Z,1708
2017-01-02T11:10:51.212Z,1884
2017-01-02T11:11:52.021Z,2612
2017-01-02T11:12:51.605Z,2616
2017-01-02T11:13:51.605Z,2380
2017-01-02T11:14:52.009Z,2580
2017-01-02T11:15:51.185Z,2876
2017-01-02T11:16:51.593Z,2748
2017-01-02T11:17:51.585Z,2420
2017-01-02T11:18:52.005Z,2768
2017-01-02T11:19:51.169Z,3120
2017-01-02T11:20:51.574Z,3056
2017-01-02T11:21:51.993Z,3484
2017-01-02T11:22:51.580Z,3072
2017-01-02T11:23:51.561Z,2564
2017-01-02T11:24:51.565Z,2616
2017-01-02T11:25:51.974Z,2672
2017-01-02T11:26:51.973Z,2608
2017-01-02T11:27:51.966Z,3084
2017-01-02T11:28:51.958Z,3056
2017-01-02T11:29:51.958Z,2760
2017-01-02T11:30:51.546Z,2472
2017-01-02T11:31:51.954Z,2688
2017-01-02T11:32:51.954Z,2392
2017-01-02T11:33:51.530Z,2608
2017-01-02T11:34:51.946Z,3120
2017-01-02T11:35:51.522Z,2844
2017-01-02T11:36:51.511Z,2264
2017-01-02T11:37:51.926Z,2608
2017-01-02T11:38:51.925Z,2520
2017-01-02T11:39:51.506Z,2032
2017-01-02T11:40:51.922Z,1960
2017-01-02T11:41:51.098Z,2048
2017-01-02T11:42:51.510Z,2128
2017-01-02T11:43:51.122Z,2048
2017-01-02T11:44:51.522Z,1948
2017-01-02T11:45:51.493Z,2124
2017-01-02T11:46:51.895Z,1952
2017-01-02T11:47:51.475Z,1764
2017-01-02T11:48:51.484Z,1788
2017-01-02T11:49:51.894Z,1828
2017-01-02T11:50:51.891Z,1912
2017-01-02T11:51:51.471Z,2092
2017-01-02T11:52:51.463Z,2164
2017-01-02T11:53:51.878Z,2252
2017-01-02T11:54:51.463Z,2236
2017-01-02T11:55:51.866Z,2232
2017-01-02T11:56:51.459Z,2084
2017-01-02T11:57:51.039Z,1944
2017-01-02T11:58:51.035Z,2136
2017-01-02T11:59:51.059Z,2136
2017-01-02T12:00:51.439Z,2460
2017-01-02T12:01:50.611Z,2520
2017-01-02T12:02:51.851Z,2668
2017-01-02T12:03:51.835Z,3056
2017-01-02T12:04:51.423Z,2548
2017-01-02T12:05:51.835Z,2856
2017-01-02T12:06:51.415Z,3168
2017-01-02T12:07:51.819Z,3440
2017-01-02T12:08:51.411Z,3800
2017-01-02T12:09:51.401Z,3460
2017-01-02T12:10:51.823Z,3312
2017-01-02T12:11:50.983Z,3452
2017-01-02T12:12:51.400Z,3228
2017-01-02T12:13:51.401Z,3184
2017-01-02T12:14:51.799Z,3408
2017-01-02T12:15:51.388Z,3868
2017-01-02T12:16:51.787Z,4052
2017-01-02T12:17:51.379Z,3780
2017-01-02T12:18:51.376Z,3492
2017-01-02T12:19:51.783Z,3268
2017-01-02T12:20:51.371Z,3476
2017-01-02T12:21:51.779Z,2984
2017-01-02T12:22:51.360Z,2888
2017-01-02T12:23:51.776Z,2920
2017-01-02T12:24:50.944Z,2848
2017-01-02T12:25:51.356Z,2852
2017-01-02T12:26:51.768Z,3252
2017-01-02T12:27:51.760Z,3524
2017-01-02T12:28:51.768Z,3192
2017-01-02T12:29:52.006Z,3352
2017-01-02T12:30:51.348Z,3064
2017-01-02T12:31:51.744Z,3020
2017-01-02T12:32:51.747Z,3428
2017-01-02T12:33:51.748Z,2960
2017-01-02T12:34:51.316Z,2396
2017-01-02T12:35:51.740Z,2496
2017-01-02T12:36:50.908Z,2392
2017-01-02T12:37:50.900Z,2040
2017-01-02T12:38:51.724Z,2384
2017-01-02T12:39:51.724Z,2284
2017-01-02T12:40:51.308Z,2316
2017-01-02T12:41:51.716Z,2652
2017-01-02T12:42:50.904Z,2800
2017-01-02T12:43:51.708Z,2700
2017-01-02T12:44:51.708Z,2376
2017-01-02T12:45:51.297Z,1956
2017-01-02T12:46:51.297Z,1760
2017-01-02T12:47:50.876Z,2036
2017-01-02T12:48:51.733Z,2328
2017-01-02T12:49:51.724Z,2544
2017-01-02T12:50:51.273Z,2496
2017-01-02T12:51:50.853Z,2432
2017-01-02T12:52:51.681Z,2452
2017-01-02T12:53:51.268Z,2448
2017-01-02T12:54:51.261Z,2404
2017-01-02T12:55:50.853Z,2492
2017-01-02T12:56:51.257Z,2560
2017-01-02T12:57:50.845Z,2696
2017-01-02T12:58:51.249Z,2508
2017-01-02T12:59:51.665Z,2488
2017-01-02T13:00:51.278Z,2404
2017-01-02T13:01:51.649Z,2384
2017-01-02T13:02:51.237Z,2404
2017-01-02T13:03:51.241Z,2364
2017-01-02T13:04:51.229Z,2264
2017-01-02T13:05:50.825Z,2192
2017-01-02T13:06:51.237Z,2216
2017-01-02T13:07:51.230Z,2200
2017-01-02T13:08:51.637Z,2168
2017-01-02T13:09:51.625Z,2140
2017-01-02T13:10:50.805Z,2132
2017-01-02T13:11:51.625Z,2148
2017-01-02T13:12:51.617Z,2060
2017-01-02T13:13:50.805Z,1852
2017-01-02T13:14:51.630Z,1812
2017-01-02T13:15:51.205Z,1888
2017-01-02T13:16:50.785Z,1868
2017-01-02T13:17:51.605Z,1836
2017-01-02T13:18:51.622Z,1868
2017-01-02T13:19:51.181Z,1932
2017-01-02T13:20:51.597Z,2088
2017-01-02T13:21:51.597Z,2240
2017-01-02T13:22:51.590Z,2208
2017-01-02T13:23:51.593Z,2252
2017-01-02T13:24:51.185Z,2344
2017-01-02T13:25:51.578Z,2256
2017-01-02T13:26:51.577Z,2084
2017-01-02T13:27:51.573Z,2060
2017-01-02T13:28:51.154Z,2060
2017-01-02T13:29:50.746Z,1952
2017-01-02T13:30:51.154Z,1852
2017-01-02T13:31:51.141Z,1836
2017-01-02T13:32:51.557Z,1872
2017-01-02T13:33:50.733Z,1856
2017-01-02T13:34:51.557Z,1828
2017-01-02T13:35:51.549Z,1720
2017-01-02T13:36:51.541Z,1764
2017-01-02T13:37:51.133Z,1808
2017-01-02T13:38:51.133Z,1776
2017-01-02T13:39:50.713Z,1788
2017-01-02T13:40:51.545Z,1768
2017-01-02T13:41:51.561Z,1652
2017-01-02T13:42:50.710Z,1572
2017-01-02T13:43:51.118Z,1444
2017-01-02T13:44:51.526Z,1396
2017-01-02T13:45:51.513Z,1380
2017-01-02T13:46:51.514Z,1292
2017-01-02T13:47:50.697Z,1284
2017-01-02T13:48:51.101Z,1304
2017-01-02T13:49:50.674Z,1344
2017-01-02T13:50:51.505Z,1324
2017-01-02T13:51:51.501Z,1248
2017-01-02T13:52:51.501Z,1216
2017-01-02T13:53:51.494Z,1208
2017-01-02T13:54:50.253Z,1212
2017-01-02T13:55:51.494Z,1240
2017-01-02T13:56:51.073Z,1232
2017-01-02T13:57:51.482Z,1220
2017-01-02T13:58:51.473Z,1108
2017-01-02T13:59:51.061Z,1008
2017-01-02T14:00:51.475Z,976
2017-01-02T14:01:51.053Z,940
2017-01-02T14:02:51.466Z,852
2017-01-02T14:03:51.462Z,840
2017-01-02T14:04:51.046Z,852
2017-01-02T14:05:51.454Z,796